Time,TemperatureF,DewpointF,PressureIn,WindDirection,WindDirectionDegrees,WindSpeedMPH,WindSpeedGustMPH,Humidity,HourlyPrecipIn,Conditions,Clouds,dailyrainin,SolarRadiationWatts/m^2,SoftwareType,DateUTC
2013-02-24 00:05:00,46.4,37.9,29.97,West,275,0.0,0.0,72,0.00,,,0.00,0,Wunderground v.1.15,2013-02-24 08:05:00,
2013-02-24 00:14:00,46.4,37.9,29.97,West,275,0.0,0.0,72,0.00,,,0.00,0,Wunderground v.1.15,2013-02-24 08:14:00,
2013-02-24 00:19:00,46.3,37.8,29.97,West,275,0.0,0.0,72,0.00,,,0.00,0,Wunderground v.1.15,2013-02-24 08:19:00,
2013-02-24 00:24:00,46.4,37.9,29.97,West,275,0.0,0.0,72,0.00,,,0.00,0,Wunderground v.1.15,2013-02-24 08:24:00,
2013-02-24 00:30:00,46.3,37.8,29.97,West,275,0.0,0.0,72,0.00,,,0.00,0,Wunderground v.1.15,2013-02-24 08:30:00,
2013-02-24 00:39:00,46.0,37.5,29.98,West,275,2.0,2.0,72,0.00,,,0.00,0,Wunderground v.1.15,2013-02-24 08:39:00,
2013-02-24 00:45:00,46.0,37.8,29.98,West,275,0.0,2.0,73,0.00,,,0.00,0,Wunderground v.1.15,2013-02-24 08:45:00,
2013-02-24 00:54:00,45.9,37.7,29.98,West,275,0.0,0.0,73,0.00,,,0.00,0,Wunderground v.1.15,2013-02-24 08:54:00,
2013-02-24 00:59:00,45.8,37.6,29.97,West,275,0.0,0.0,73,0.00,,,0.00,0,Wunderground v.1.15,2013-02-24 08:59:00,
2013-02-24 01:05:00,45.7,37.5,29.97,West,275,0.0,0.0,73,0.00,,,0.00,0,Wunderground v.1.15,2013-02-24 09:05:00,
2013-02-24 01:15:00,45.3,36.8,29.98,West,275,0.0,0.0,72,0.00,,,0.00,0,Wunderground v.1.15,2013-02-24 09:15:00,
2013-02-24 01:25:00,45.0,36.9,29.98,West,275,0.0,0.0,73,0.00,,,0.00,0,Wunderground v.1.15,2013-02-24 09:25:00,
2013-02-24 01:30:00,44.8,36.7,29.97,West,275,0.0,0.0,73,0.00,,,0.00,0,Wunderground v.1.15,2013-02-24 09:30:00,
2013-02-24 01:40:00,44.8,37.0,29.97,West,275,0.0,0.0,74,0.00,,,0.00,0,Wunderground v.1.15,2013-02-24 09:40:00,
2013-02-24 01:45:00,44.8,37.0,29.97,West,275,0.0,0.0,74,0.00,,,0.00,0,Wunderground v.1.15,2013-02-24 09:45:00,
2013-02-24 01:50:00,45.0,37.2,29.97,West,275,0.0,0.0,74,0.00,,,0.00,0,Wunderground v.1.15,2013-02-24 09:50:00,
2013-02-24 02:00:00,44.8,37.0,29.98,West,275,0.0,0.0,74,0.00,,,0.00,0,Wunderground v.1.15,2013-02-24 10:00:00,
2013-02-24 02:05:00,44.7,36.9,29.98,West,275,0.0,0.0,74,0.00,,,0.00,0,Wunderground v.1.15,2013-02-24 10:05:00,
2013-02-24 02:15:00,44.9,37.5,29.97,West,275,0.0,0.0,75,0.00,,,0.00,0,Wunderground v.1.15,2013-02-24 10:15:00,
2013-02-24 02:20:00,45.3,37.8,29.97,West,275,0.0,0.0,75,0.00,,,0.00,0,Wunderground v.1.15,2013-02-24 10:20:00,
2013-02-24 02:25:00,45.5,38.0,29.97,West,275,0.0,0.0,75,0.00,,,0.00,0,Wunderground v.1.15,2013-02-24 10:25:00,
2013-02-24 02:30:00,45.3,37.5,29.97,West,275,0.0,0.0,74,0.00,,,0.00,0,Wunderground v.1.15,2013-02-24 10:30:00,
2013-02-24 02:40:00,45.0,37.2,29.97,West,275,0.0,0.0,74,0.00,,,0.00,0,Wunderground v.1.15,2013-02-24 10:40:00,
2013-02-24 02:45:00,45.2,37.7,29.97,West,275,0.0,0.0,75,0.00,,,0.00,0,Wunderground v.1.15,2013-02-24 10:45:00,
2013-02-24 02:55:00,46.1,39.0,29.97,West,275,0.0,0.0,76,0.00,,,0.00,0,Wunderground v.1.15,2013-02-24 10:55:00,
2013-02-24 03:00:00,46.7,39.5,29.97,West,275,0.0,0.0,76,0.00,,,0.00,0,Wunderground v.1.15,2013-02-24 11:00:00,
2013-02-24 03:05:00,47.1,39.9,29.97,West,275,0.0,0.0,76,0.00,,,0.00,0,Wunderground v.1.15,2013-02-24 11:05:00,
2013-02-24 03:15:00,47.4,39.5,29.97,West,275,0.0,0.0,74,0.00,,,0.00,0,Wunderground v.1.15,2013-02-24 11:15:00,
2013-02-24 03:20:00,47.4,39.5,29.97,West,275,1.0,1.0,74,0.00,,,0.00,0,Wunderground v.1.15,2013-02-24 11:20:00,
2013-02-24 03:25:00,47.6,39.7,29.98,West,275,0.0,1.0,74,0.00,,,0.00,0,Wunderground v.1.15,2013-02-24 11:25:00,
2013-02-24 03:30:00,47.5,39.3,29.97,West,275,0.0,0.0,73,0.00,,,0.00,0,Wunderground v.1.15,2013-02-24 11:30:00,
2013-02-24 03:40:00,47.8,39.6,29.98,West,275,0.0,0.0,73,0.00,,,0.00,0,Wunderground v.1.15,2013-02-24 11:40:00,
2013-02-24 03:50:00,48.2,39.9,29.98,West,275,2.0,2.0,73,0.00,,,0.00,0,Wunderground v.1.15,2013-02-24 11:50:00,
2013-02-24 03:55:00,48.2,39.6,29.98,West,275,0.0,2.0,72,0.00,,,0.00,0,Wunderground v.1.15,2013-02-24 11:55:00,
2013-02-24 04:00:00,48.1,39.5,29.98,West,274,0.0,0.0,72,0.00,,,0.00,0,Wunderground v.1.15,2013-02-24 12:00:00,
2013-02-24 04:05:00,47.9,39.3,29.99,West,275,0.0,0.0,72,0.00,,,0.00,0,Wunderground v.1.15,2013-02-24 12:05:00,
2013-02-24 04:15:00,47.8,39.2,29.98,West,275,0.0,0.0,72,0.00,,,0.00,0,Wunderground v.1.15,2013-02-24 12:15:00,
2013-02-24 04:20:00,47.8,39.2,29.99,West,275,0.0,0.0,72,0.00,,,0.00,0,Wunderground v.1.15,2013-02-24 12:20:00,
2013-02-24 04:25:00,47.7,39.1,29.98,West,275,0.0,0.0,72,0.00,,,0.00,0,Wunderground v.1.15,2013-02-24 12:25:00,
2013-02-24 04:30:00,47.6,39.0,29.99,West,275,0.0,0.0,72,0.00,,,0.00,0,Wunderground v.1.15,2013-02-24 12:30:00,
2013-02-24 04:35:00,47.7,39.5,29.98,West,275,0.0,0.0,73,0.00,,,0.00,0,Wunderground v.1.15,2013-02-24 12:35:00,
2013-02-24 04:45:00,47.2,38.6,29.99,ENE,64,2.0,2.0,72,0.00,,,0.00,0,Wunderground v.1.15,2013-02-24 12:45:00,
2013-02-24 04:50:00,47.0,38.4,29.99,ENE,64,0.0,0.0,72,0.00,,,0.00,0,Wunderground v.1.15,2013-02-24 12:50:00,
2013-02-24 05:00:00,46.6,38.1,29.99,ENE,64,0.0,0.0,72,0.00,,,0.00,0,Wunderground v.1.15,2013-02-24 13:00:00,
2013-02-24 05:05:00,46.3,37.8,29.99,ENE,64,1.0,1.0,72,0.00,,,0.00,0,Wunderground v.1.15,2013-02-24 13:05:00,
2013-02-24 05:15:00,46.0,37.5,30.00,ENE,64,0.0,0.0,72,0.00,,,0.00,0,Wunderground v.1.15,2013-02-24 13:15:00,
2013-02-24 05:25:00,45.6,37.1,30.00,ENE,64,0.0,0.0,72,0.00,,,0.00,0,Wunderground v.1.15,2013-02-24 13:25:00,
2013-02-24 05:30:00,45.4,37.2,30.00,ENE,64,0.0,0.0,73,0.00,,,0.00,0,Wunderground v.1.15,2013-02-24 13:30:00,
2013-02-24 05:40:00,44.9,36.8,30.00,ENE,64,0.0,0.0,73,0.00,,,0.00,0,Wunderground v.1.15,2013-02-24 13:40:00,
2013-02-24 05:45:00,44.7,36.6,30.00,ENE,64,0.0,0.0,73,0.00,,,0.00,0,Wunderground v.1.15,2013-02-24 13:45:00,
2013-02-24 05:50:00,44.6,36.5,30.00,ENE,64,1.0,1.0,73,0.00,,,0.00,0,Wunderground v.1.15,2013-02-24 13:50:00,
2013-02-24 06:00:00,44.0,35.9,30.00,NNW,346,0.0,0.0,73,0.00,,,0.00,0,Wunderground v.1.15,2013-02-24 14:00:00,
2013-02-24 06:05:00,43.7,36.0,30.00,NNW,346,0.0,0.0,74,0.00,,,0.00,0,Wunderground v.1.15,2013-02-24 14:05:00,
2013-02-24 06:15:00,43.6,35.9,30.01,NNW,346,0.0,0.0,74,0.00,,,0.00,0,Wunderground v.1.15,2013-02-24 14:15:00,
2013-02-24 06:20:00,43.5,35.8,30.01,NNW,346,2.0,2.0,74,0.00,,,0.00,0,Wunderground v.1.15,2013-02-24 14:20:00,
2013-02-24 06:25:00,43.5,36.1,30.01,NNW,346,0.0,2.0,75,0.00,,,0.00,0,Wunderground v.1.15,2013-02-24 14:25:00,
2013-02-24 06:30:00,43.5,36.1,30.02,NNW,346,0.0,0.0,75,0.00,,,0.00,0,Wunderground v.1.15,2013-02-24 14:30:00,
2013-02-24 06:40:00,43.5,36.1,30.02,NNW,346,2.0,2.0,75,0.00,,,0.00,0,Wunderground v.1.15,2013-02-24 14:40:00,
2013-02-24 06:45:00,43.7,36.6,30.02,NNW,346,0.0,2.0,76,0.00,,,0.00,0,Wunderground v.1.15,2013-02-24 14:45:00,
2013-02-24 06:50:00,43.8,36.4,30.03,NNW,346,0.0,0.0,75,0.00,,,0.00,0,Wunderground v.1.15,2013-02-24 14:50:00,
2013-02-24 07:00:00,43.9,36.5,30.03,NNW,347,0.0,0.0,75,0.00,,,0.00,0,Wunderground v.1.15,2013-02-24 15:00:00,
2013-02-24 07:05:00,44.1,37.0,30.04,NNW,347,0.0,0.0,76,0.00,,,0.00,0,Wunderground v.1.15,2013-02-24 15:05:00,
2013-02-24 07:15:00,44.1,37.0,30.04,NNW,347,0.0,0.0,76,0.00,,,0.00,0,Wunderground v.1.15,2013-02-24 15:15:00,
2013-02-24 07:20:00,44.4,37.3,30.04,North,349,2.0,2.0,76,0.00,,,0.00,0,Wunderground v.1.15,2013-02-24 15:20:00,
2013-02-24 07:25:00,44.8,37.7,30.04,North,349,0.0,2.0,76,0.00,,,0.00,0,Wunderground v.1.15,2013-02-24 15:25:00,
2013-02-24 07:30:00,45.1,38.0,30.04,North,349,0.0,0.0,76,0.00,,,0.00,0,Wunderground v.1.15,2013-02-24 15:30:00,
2013-02-24 07:40:00,45.5,38.4,30.05,North,349,0.0,0.0,76,0.00,,,0.00,0,Wunderground v.1.15,2013-02-24 15:40:00,
2013-02-24 07:45:00,45.8,39.0,30.05,North,349,0.0,0.0,77,0.00,,,0.00,0,Wunderground v.1.15,2013-02-24 15:45:00,
2013-02-24 07:50:00,46.1,39.3,30.05,North,349,0.0,0.0,77,0.00,,,0.00,0,Wunderground v.1.15,2013-02-24 15:50:00,
2013-02-24 07:55:00,46.3,39.5,30.06,NNW,348,0.0,0.0,77,0.00,,,0.00,0,Wunderground v.1.15,2013-02-24 15:55:00,
2013-02-24 08:00:00,46.6,39.8,30.06,NNW,348,0.0,0.0,77,0.00,,,0.00,0,Wunderground v.1.15,2013-02-24 16:00:00,
2013-02-24 08:05:00,47.0,40.2,30.06,NNW,348,0.0,0.0,77,0.00,,,0.00,0,Wunderground v.1.15,2013-02-24 16:05:00,
2013-02-24 08:15:00,47.0,39.5,30.06,North,349,0.0,0.0,75,0.00,,,0.00,0,Wunderground v.1.15,2013-02-24 16:15:00,
2013-02-24 08:20:00,46.7,38.1,30.06,NNW,348,0.0,0.0,72,0.00,,,0.00,0,Wunderground v.1.15,2013-02-24 16:20:00,
2013-02-24 08:25:00,46.8,35.6,30.06,North,349,0.0,0.0,65,0.00,,,0.00,0,Wunderground v.1.15,2013-02-24 16:25:00,
2013-02-24 08:30:00,48.0,38.3,30.07,ENE,74,3.0,3.0,69,0.00,,,0.00,0,Wunderground v.1.15,2013-02-24 16:30:00,
2013-02-24 08:40:00,50.6,39.7,30.07,SE,135,0.0,0.0,66,0.00,,,0.00,0,Wunderground v.1.15,2013-02-24 16:40:00,
2013-02-24 08:45:00,51.5,40.5,30.07,SE,135,0.0,0.0,66,0.00,,,0.00,0,Wunderground v.1.15,2013-02-24 16:45:00,
2013-02-24 08:55:00,52.5,39.0,30.08,SSW,204,0.0,0.0,60,0.00,,,0.00,0,Wunderground v.1.15,2013-02-24 16:55:00,
2013-02-24 09:00:00,52.9,37.6,30.08,SSW,204,0.0,0.0,56,0.00,,,0.00,0,Wunderground v.1.15,2013-02-24 17:00:00,
2013-02-24 09:05:00,53.3,36.1,30.08,SSW,204,0.0,0.0,52,0.00,,,0.00,0,Wunderground v.1.15,2013-02-24 17:05:00,
2013-02-24 09:15:00,54.4,35.1,30.08,WNW,296,1.0,1.0,48,0.00,,,0.00,0,Wunderground v.1.15,2013-02-24 17:15:00,
2013-02-24 09:20:00,54.8,34.4,30.08,WNW,296,0.0,0.0,46,0.00,,,0.00,0,Wunderground v.1.15,2013-02-24 17:20:00,
2013-02-24 09:25:00,55.4,32.7,30.08,WNW,296,0.0,0.0,42,0.00,,,0.00,0,Wunderground v.1.15,2013-02-24 17:25:00,
2013-02-24 09:30:00,55.9,31.3,30.08,WNW,296,0.0,0.0,39,0.00,,,0.00,0,Wunderground v.1.15,2013-02-24 17:30:00,
2013-02-24 09:40:00,57.2,31.1,30.08,WNW,296,1.0,1.0,37,0.00,,,0.00,0,Wunderground v.1.15,2013-02-24 17:40:00,
2013-02-24 09:45:00,57.7,29.5,30.08,WNW,296,0.0,1.0,34,0.00,,,0.00,0,Wunderground v.1.15,2013-02-24 17:45:00,
2013-02-24 09:55:00,58.8,26.6,30.08,WNW,296,0.0,0.0,29,0.00,,,0.00,0,Wunderground v.1.15,2013-02-24 17:55:00,
2013-02-24 10:00:00,59.1,27.7,30.08,NW,319,0.0,0.0,30,0.00,,,0.00,0,Wunderground v.1.15,2013-02-24 18:00:00,
2013-02-24 10:05:00,59.5,28.8,30.09,NNW,331,0.0,0.0,31,0.00,,,0.00,0,Wunderground v.1.15,2013-02-24 18:05:00,
2013-02-24 10:15:00,60.3,26.1,30.08,NNW,329,2.0,3.0,27,0.00,,,0.00,0,Wunderground v.1.15,2013-02-24 18:15:00,
2013-02-24 10:25:00,61.6,24.4,30.09,NNW,329,0.0,0.0,24,0.00,,,0.00,0,Wunderground v.1.15,2013-02-24 18:25:00,
2013-02-24 10:30:00,62.5,31.4,30.09,East,90,0.0,0.0,31,0.00,,,0.00,0,Wunderground v.1.15,2013-02-24 18:30:00,
2013-02-24 10:35:00,62.6,33.1,30.09,WSW,239,1.0,1.0,33,0.00,,,0.00,0,Wunderground v.1.15,2013-02-24 18:35:00,
2013-02-24 10:45:00,61.9,36.0,30.09,South,175,0.0,4.0,38,0.00,,,0.00,0,Wunderground v.1.15,2013-02-24 18:45:00,
2013-02-24 10:50:00,62.1,32.6,30.09,South,181,0.0,0.0,33,0.00,,,0.00,0,Wunderground v.1.15,2013-02-24 18:50:00,
2013-02-24 11:00:00,63.2,24.7,30.08,East,79,1.0,1.0,23,0.00,,,0.00,0,Wunderground v.1.15,2013-02-24 19:00:00,
2013-02-24 11:05:00,63.8,21.9,30.08,ESE,105,3.0,3.0,20,0.00,,,0.00,0,Wunderground v.1.15,2013-02-24 19:05:00,
2013-02-24 11:15:00,65.0,20.4,30.08,NE,44,2.0,5.0,18,0.00,,,0.00,0,Wunderground v.1.15,2013-02-24 19:15:00,
2013-02-24 11:25:00,65.8,23.6,30.07,SE,125,1.0,1.0,20,0.00,,,0.00,0,Wunderground v.1.15,2013-02-24 19:25:00,
2013-02-24 11:30:00,66.1,25.0,30.07,NE,39,2.0,2.0,21,0.00,,,0.00,0,Wunderground v.1.15,2013-02-24 19:30:00,
2013-02-24 11:40:00,66.6,23.0,30.07,West,260,2.0,2.0,19,0.00,,,0.00,0,Wunderground v.1.15,2013-02-24 19:40:00,
2013-02-24 11:45:00,66.8,20.5,30.07,WNW,301,1.0,2.0,17,0.00,,,0.00,0,Wunderground v.1.15,2013-02-24 19:45:00,
2013-02-24 11:55:00,67.0,19.3,30.06,SSW,198,2.0,2.0,16,0.00,,,0.00,0,Wunderground v.1.15,2013-02-24 19:55:00,
2013-02-24 12:00:00,67.2,23.5,30.06,WSW,240,3.0,3.0,19,0.00,,,0.00,0,Wunderground v.1.15,2013-02-24 20:00:00,
2013-02-24 12:05:00,67.1,23.4,30.06,NE,35,4.0,4.0,19,0.00,,,0.00,0,Wunderground v.1.15,2013-02-24 20:05:00,
2013-02-24 12:15:00,68.0,24.2,30.05,South,187,1.0,1.0,19,0.00,,,0.00,0,Wunderground v.1.15,2013-02-24 20:15:00,
2013-02-24 12:25:00,68.6,20.6,30.05,WNW,301,0.0,3.0,16,0.00,,,0.00,0,Wunderground v.1.15,2013-02-24 20:25:00,
2013-02-24 12:30:00,68.9,28.5,30.05,SE,145,0.0,0.0,22,0.00,,,0.00,0,Wunderground v.1.15,2013-02-24 20:30:00,
2013-02-24 12:40:00,68.9,28.5,30.05,West,269,2.0,2.0,22,0.00,,,0.00,0,Wunderground v.1.15,2013-02-24 20:40:00,
2013-02-24 12:45:00,69.2,28.7,30.05,NW,305,2.0,2.0,22,0.00,,,0.00,0,Wunderground v.1.15,2013-02-24 20:45:00,
2013-02-24 12:50:00,68.6,28.2,30.05,North,3,0.0,0.0,22,0.00,,,0.00,0,Wunderground v.1.15,2013-02-24 20:50:00,
2013-02-24 12:55:00,69.0,29.6,30.05,NE,45,0.0,0.0,23,0.00,,,0.00,0,Wunderground v.1.15,2013-02-24 20:55:00,
2013-02-24 13:05:00,69.4,27.7,30.04,East,99,4.0,4.0,21,0.00,,,0.00,0,Wunderground v.1.15,2013-02-24 21:05:00,
2013-02-24 13:15:00,69.2,16.2,30.04,NE,47,2.0,2.0,13,0.00,,,0.00,0,Wunderground v.1.15,2013-02-24 21:15:00,
2013-02-24 13:20:00,69.8,18.4,30.04,East,100,2.0,2.0,14,0.00,,,0.00,0,Wunderground v.1.15,2013-02-24 21:20:00,
2013-02-24 13:25:00,70.4,23.5,30.04,NNE,19,3.0,3.0,17,0.00,,,0.00,0,Wunderground v.1.15,2013-02-24 21:25:00,
2013-02-24 13:35:00,71.1,21.1,30.04,North,6,0.0,1.0,15,0.00,,,0.00,0,Wunderground v.1.15,2013-02-24 21:35:00,
2013-02-24 13:45:00,71.4,24.3,30.03,ESE,118,5.0,5.0,17,0.00,,,0.00,0,Wunderground v.1.15,2013-02-24 21:45:00,
2013-02-24 13:50:00,71.0,21.0,30.03,NE,56,3.0,3.0,15,0.00,,,0.00,0,Wunderground v.1.15,2013-02-24 21:50:00,
2013-02-24 13:55:00,71.1,21.1,30.03,NE,55,0.0,3.0,15,0.00,,,0.00,0,Wunderground v.1.15,2013-02-24 21:55:00,
2013-02-24 14:00:00,71.4,21.3,30.03,WNW,294,0.0,0.0,15,0.00,,,0.00,0,Wunderground v.1.15,2013-02-24 22:00:00,
2013-02-24 14:05:00,72.1,21.9,30.03,North,1,0.0,0.0,15,0.00,,,0.00,0,Wunderground v.1.15,2013-02-24 22:05:00,
2013-02-24 14:15:00,72.3,22.0,30.03,NE,34,0.0,3.0,15,0.00,,,0.00,0,Wunderground v.1.15,2013-02-24 22:15:00,
2013-02-24 14:20:00,72.2,21.9,30.03,ENE,76,4.0,4.0,15,0.00,,,0.00,0,Wunderground v.1.15,2013-02-24 22:20:00,
2013-02-24 14:25:00,72.4,20.5,30.03,East,95,2.0,4.0,14,0.00,,,0.00,0,Wunderground v.1.15,2013-02-24 22:25:00,
2013-02-24 14:30:00,73.1,22.7,30.02,ENE,78,2.0,2.0,15,0.00,,,0.00,0,Wunderground v.1.15,2013-02-24 22:30:00,
2013-02-24 14:40:00,74.1,20.1,30.02,ENE,60,8.0,8.0,13,0.00,,,0.00,0,Wunderground v.1.15,2013-02-24 22:40:00,
2013-02-24 14:45:00,73.9,19.9,30.02,ESE,109,3.0,8.0,13,0.00,,,0.00,0,Wunderground v.1.15,2013-02-24 22:45:00,
2013-02-24 14:55:00,73.2,19.4,30.02,ESE,102,2.0,2.0,13,0.00,,,0.00,0,Wunderground v.1.15,2013-02-24 22:55:00,
2013-02-24 15:00:00,72.8,19.0,30.02,East,95,3.0,3.0,13,0.00,,,0.00,0,Wunderground v.1.15,2013-02-24 23:00:00,
2013-02-24 15:05:00,72.8,19.0,30.02,South,176,0.0,3.0,13,0.00,,,0.00,0,Wunderground v.1.15,2013-02-24 23:05:00,
2013-02-24 15:15:00,73.7,19.8,30.02,ENE,68,1.0,1.0,13,0.00,,,0.00,0,Wunderground v.1.15,2013-02-24 23:15:00,
2013-02-24 15:20:00,73.6,19.7,30.02,East,93,1.0,1.0,13,0.00,,,0.00,0,Wunderground v.1.15,2013-02-24 23:20:00,
2013-02-24 15:25:00,73.7,21.5,30.02,NE,53,0.0,1.0,14,0.00,,,0.00,0,Wunderground v.1.15,2013-02-24 23:25:00,
2013-02-24 15:30:00,74.2,20.1,30.02,ENE,78,0.0,0.0,13,0.00,,,0.00,0,Wunderground v.1.15,2013-02-24 23:30:00,
2013-02-24 15:40:00,73.9,31.5,30.02,East,99,1.0,1.0,21,0.00,,,0.00,0,Wunderground v.1.15,2013-02-24 23:40:00,
2013-02-24 15:50:00,71.5,33.8,30.02,South,180,2.0,2.0,25,0.00,,,0.00,0,Wunderground v.1.15,2013-02-24 23:50:00,
2013-02-24 15:55:00,69.3,29.9,30.02,South,191,4.0,4.0,23,0.00,,,0.00,0,Wunderground v.1.15,2013-02-24 23:55:00,
2013-02-24 16:00:00,67.9,29.7,30.02,SSW,192,2.0,2.0,24,0.00,,,0.00,0,Wunderground v.1.15,2013-02-25 00:00:00,
2013-02-24 16:05:00,67.4,29.3,30.02,SSW,207,6.0,6.0,24,0.00,,,0.00,0,Wunderground v.1.15,2013-02-25 00:05:00,
2013-02-24 16:15:00,65.8,24.7,30.03,SW,234,3.0,4.0,21,0.00,,,0.00,0,Wunderground v.1.15,2013-02-25 00:15:00,
2013-02-24 16:20:00,65.5,24.5,30.03,South,182,4.0,4.0,21,0.00,,,0.00,0,Wunderground v.1.15,2013-02-25 00:20:00,
2013-02-24 16:25:00,65.4,24.4,30.02,South,174,0.0,4.0,21,0.00,,,0.00,0,Wunderground v.1.15,2013-02-25 00:25:00,
2013-02-24 16:30:00,65.9,25.9,30.02,South,170,0.0,0.0,22,0.00,,,0.00,0,Wunderground v.1.15,2013-02-25 00:30:00,
2013-02-24 16:40:00,67.2,27.0,30.02,SW,219,0.0,0.0,22,0.00,,,0.00,0,Wunderground v.1.15,2013-02-25 00:40:00,
2013-02-24 16:45:00,67.7,27.5,30.02,SW,219,0.0,0.0,22,0.00,,,0.00,0,Wunderground v.1.15,2013-02-25 00:45:00,
2013-02-24 16:55:00,67.6,29.5,30.02,South,177,0.0,0.0,24,0.00,,,0.00,0,Wunderground v.1.15,2013-02-25 00:55:00,
2013-02-24 17:00:00,66.6,27.6,30.02,South,173,1.0,1.0,23,0.00,,,0.00,0,Wunderground v.1.15,2013-02-25 01:00:00,
2013-02-24 17:05:00,66.4,28.5,30.03,South,182,0.0,1.0,24,0.00,,,0.00,0,Wunderground v.1.15,2013-02-25 01:05:00,
2013-02-24 17:15:00,66.7,28.7,30.03,South,182,0.0,0.0,24,0.00,,,0.00,0,Wunderground v.1.15,2013-02-25 01:15:00,
2013-02-24 17:25:00,65.7,30.8,30.04,South,182,0.0,0.0,27,0.00,,,0.00,0,Wunderground v.1.15,2013-02-25 01:25:00,
2013-02-24 17:30:00,64.7,32.5,30.04,South,182,0.0,0.0,30,0.00,,,0.00,0,Wunderground v.1.15,2013-02-25 01:30:00,
2013-02-24 17:40:00,63.0,33.4,30.04,South,182,0.0,0.0,33,0.00,,,0.00,0,Wunderground v.1.15,2013-02-25 01:40:00,
2013-02-24 17:45:00,62.6,33.8,30.05,South,182,0.0,0.0,34,0.00,,,0.00,0,Wunderground v.1.15,2013-02-25 01:45:00,
2013-02-24 17:50:00,62.2,34.2,30.05,South,182,0.0,0.0,35,0.00,,,0.00,0,Wunderground v.1.15,2013-02-25 01:50:00,
2013-02-24 18:00:00,61.7,34.5,30.06,South,182,0.0,0.0,36,0.00,,,0.00,0,Wunderground v.1.15,2013-02-25 02:00:00,
2013-02-24 18:05:00,61.4,34.2,30.06,South,182,1.0,1.0,36,0.00,,,0.00,0,Wunderground v.1.15,2013-02-25 02:05:00,
2013-02-24 18:15:00,59.9,34.2,30.06,ENE,57,0.0,0.0,38,0.00,,,0.00,0,Wunderground v.1.15,2013-02-25 02:15:00,
2013-02-24 18:25:00,59.4,33.1,30.07,ENE,57,0.0,0.0,37,0.00,,,0.00,0,Wunderground v.1.15,2013-02-25 02:25:00,
2013-02-24 18:30:00,59.0,33.4,30.07,ENE,71,3.0,3.0,38,0.00,,,0.00,0,Wunderground v.1.15,2013-02-25 02:30:00,
2013-02-24 18:40:00,58.4,33.5,30.07,ENE,71,0.0,0.0,39,0.00,,,0.00,0,Wunderground v.1.15,2013-02-25 02:40:00,
2013-02-24 18:45:00,58.1,31.9,30.07,ENE,67,0.0,0.0,37,0.00,,,0.00,0,Wunderground v.1.15,2013-02-25 02:45:00,
2013-02-24 18:55:00,56.7,31.4,30.08,NNW,348,0.0,2.0,38,0.00,,,0.00,0,Wunderground v.1.15,2013-02-25 02:55:00,
2013-02-24 19:00:00,56.4,31.7,30.08,North,7,3.0,3.0,39,0.00,,,0.00,0,Wunderground v.1.15,2013-02-25 03:00:00,
2013-02-24 19:05:00,56.4,33.0,30.08,North,0,0.0,3.0,41,0.00,,,0.00,0,Wunderground v.1.15,2013-02-25 03:05:00,
2013-02-24 19:15:00,56.0,33.2,30.09,North,0,0.0,0.0,42,0.00,,,0.00,0,Wunderground v.1.15,2013-02-25 03:15:00,
2013-02-24 19:20:00,55.7,33.5,30.09,North,0,0.0,0.0,43,0.00,,,0.00,0,Wunderground v.1.15,2013-02-25 03:20:00,
2013-02-24 19:30:00,55.1,31.8,30.09,NNE,15,0.0,0.0,41,0.00,,,0.00,0,Wunderground v.1.15,2013-02-25 03:30:00,
2013-02-24 19:40:00,55.0,35.1,30.10,NNE,15,0.0,0.0,47,0.00,,,0.00,0,Wunderground v.1.15,2013-02-25 03:40:00,
2013-02-24 19:45:00,55.0,36.2,30.10,NNE,15,0.0,0.0,49,0.00,,,0.00,0,Wunderground v.1.15,2013-02-25 03:45:00,
2013-02-24 19:55:00,54.4,36.6,30.11,NNE,15,0.0,0.0,51,0.00,,,0.00,0,Wunderground v.1.15,2013-02-25 03:55:00,
2013-02-24 20:00:00,54.1,35.9,30.11,NNW,336,0.0,0.0,50,0.00,,,0.00,0,Wunderground v.1.15,2013-02-25 04:00:00,
2013-02-24 20:05:00,53.8,34.0,30.11,NNW,336,0.0,0.0,47,0.00,,,0.00,0,Wunderground v.1.15,2013-02-25 04:05:00,
2013-02-24 20:15:00,53.7,35.5,30.12,NNW,336,0.0,0.0,50,0.00,,,0.00,0,Wunderground v.1.15,2013-02-25 04:15:00,
2013-02-24 20:25:00,53.6,35.4,30.12,NNW,336,1.0,2.0,50,0.00,,,0.00,0,Wunderground v.1.15,2013-02-25 04:25:00,
2013-02-24 20:30:00,53.5,33.7,30.12,NNW,336,0.0,0.0,47,0.00,,,0.00,0,Wunderground v.1.15,2013-02-25 04:30:00,
2013-02-24 20:40:00,53.3,33.0,30.12,NNW,336,0.0,0.0,46,0.00,,,0.00,0,Wunderground v.1.15,2013-02-25 04:40:00,
2013-02-24 20:45:00,53.2,32.9,30.12,NNW,336,0.0,0.0,46,0.00,,,0.00,0,Wunderground v.1.15,2013-02-25 04:45:00,
2013-02-24 20:50:00,53.1,31.7,30.13,West,261,0.0,0.0,44,0.00,,,0.00,0,Wunderground v.1.15,2013-02-25 04:50:00,
2013-02-24 20:55:00,53.1,32.3,30.13,West,262,1.0,1.0,45,0.00,,,0.00,0,Wunderground v.1.15,2013-02-25 04:55:00,
2013-02-24 21:00:00,53.1,31.2,30.13,West,262,0.0,0.0,43,0.00,,,0.00,0,Wunderground v.1.15,2013-02-25 05:00:00,
2013-02-24 21:05:00,52.8,29.7,30.13,West,262,0.0,0.0,41,0.00,,,0.00,0,Wunderground v.1.15,2013-02-25 05:05:00,
2013-02-24 21:15:00,52.5,32.3,30.14,West,262,0.0,0.0,46,0.00,,,0.00,0,Wunderground v.1.15,2013-02-25 05:15:00,
2013-02-24 21:20:00,52.3,29.9,30.14,West,262,0.0,0.0,42,0.00,,,0.00,0,Wunderground v.1.15,2013-02-25 05:20:00,
2013-02-24 21:25:00,52.2,28.6,30.15,West,262,1.0,1.0,40,0.00,,,0.00,0,Wunderground v.1.15,2013-02-25 05:25:00,
2013-02-24 21:30:00,52.1,23.8,30.15,WNW,291,4.0,4.0,33,0.00,,,0.00,0,Wunderground v.1.15,2013-02-25 05:30:00,
2013-02-24 21:40:00,53.1,22.4,30.15,NNW,330,2.0,2.0,30,0.00,,,0.00,0,Wunderground v.1.15,2013-02-25 05:40:00,
2013-02-24 21:50:00,53.2,22.5,30.15,ENE,66,0.0,0.0,30,0.00,,,0.00,0,Wunderground v.1.15,2013-02-25 05:50:00,
2013-02-24 21:55:00,53.0,22.4,30.15,North,10,0.0,0.0,30,0.00,,,0.00,0,Wunderground v.1.15,2013-02-25 05:55:00,
2013-02-24 22:05:00,52.6,21.2,30.15,NW,314,1.0,3.0,29,0.00,,,0.00,0,Wunderground v.1.15,2013-02-25 06:05:00,
2013-02-24 22:15:00,52.5,21.1,30.15,NW,308,0.0,1.0,29,0.00,,,0.00,0,Wunderground v.1.15,2013-02-25 06:15:00,
2013-02-24 22:20:00,52.4,22.6,30.15,NW,308,0.0,0.0,31,0.00,,,0.00,0,Wunderground v.1.15,2013-02-25 06:20:00,
2013-02-24 22:25:00,52.2,23.2,30.15,NW,308,0.0,0.0,32,0.00,,,0.00,0,Wunderground v.1.15,2013-02-25 06:25:00,
2013-02-24 22:35:00,51.8,22.8,30.15,NW,308,0.0,0.0,32,0.00,,,0.00,0,Wunderground v.1.15,2013-02-25 06:35:00,
2013-02-24 22:45:00,51.4,22.5,30.15,NW,313,2.0,2.0,32,0.00,,,0.00,0,Wunderground v.1.15,2013-02-25 06:45:00,
2013-02-24 22:50:00,51.3,23.1,30.16,NW,313,0.0,0.0,33,0.00,,,0.00,0,Wunderground v.1.15,2013-02-25 06:50:00,
2013-02-24 22:55:00,51.2,24.5,30.16,NW,313,0.0,0.0,35,0.00,,,0.00,0,Wunderground v.1.15,2013-02-25 06:55:00,
2013-02-24 23:05:00,50.6,23.2,30.16,NW,313,0.0,0.0,34,0.00,,,0.00,0,Wunderground v.1.15,2013-02-25 07:05:00,
2013-02-24 23:15:00,50.0,22.0,30.16,NW,313,0.0,0.0,33,0.00,,,0.00,0,Wunderground v.1.15,2013-02-25 07:15:00,
2013-02-24 23:20:00,49.6,21.6,30.17,NW,313,0.0,0.0,33,0.00,,,0.00,0,Wunderground v.1.15,2013-02-25 07:20:00,
2013-02-24 23:25:00,49.3,22.8,30.17,NW,313,0.0,0.0,35,0.00,,,0.00,0,Wunderground v.1.15,2013-02-25 07:25:00,
2013-02-24 23:30:00,49.1,23.3,30.17,NW,313,0.0,0.0,36,0.00,,,0.00,0,Wunderground v.1.15,2013-02-25 07:30:00,
2013-02-24 23:40:00,49.0,23.2,30.17,NW,313,0.0,0.0,36,0.00,,,0.00,0,Wunderground v.1.15,2013-02-25 07:40:00,
2013-02-24 23:45:00,49.0,23.8,30.17,NW,313,0.0,0.0,37,0.00,,,0.00,0,Wunderground v.1.15,2013-02-25 07:45:00,
2013-02-24 23:55:00,49.1,23.3,30.18,NW,313,0.0,0.0,36,0.00,,,0.00,0,Wunderground v.1.15,2013-02-25 07:55:00,